Airfield :
LOGIN :

Register | Disclaimer

   EN    FR    IT 

 










Legend :    VFR   Marginal VFR   IFR   Intensive IFR   Very Intensive IFR
Visi :
Ceiling :
>= 8 km
>= 3000ft
5 to 8 km
1000 to 3000 ft
1500m to 5 km
500 to 1000 ft
800 to 1500m
200 to 500 ft
< 800m
< 200 ft
Symbols :   Thunderstorms  Fog  Heavy snow  Heavy precipitations  Wind > 20 kt
SIGMETs :     Misc.  Thunderstorms  Icing  Turbulence  Mountain Waves  Volcanic Ashes







- Airport Elevation : 160 ft
- IATA code : FMO


EDDG - Münster Osnabrück Int.

CURRENT METAR :
  • 270250Z VRB01KT CAVOK 00/M00 Q1015 NOSIG

EXPIRED METARs :
  • 270220Z 28002KT CAVOK 01/M01 Q1014 NOSIG
  • 270150Z 25003KT CAVOK 01/M00 Q1014 NOSIG
  • 270120Z VRB02KT CAVOK 00/M01 Q1014 NOSIG
  • 270050Z 25002KT 9999 MIFG NSC M00/M01 Q1014 NOSIG
  • 270020Z VRB01KT 9999 MIFG NSC M00/M01 Q1014 NOSIG

TAF TAF EDDG
Valid from the 27 at 00:00 until the 28 at 00:00 UTC


262300Z 2700/2724 VRB03KT CAVOK
BECMG 2702/2705 2000 BR
BECMG 2705/2708 9999
BECMG 2707/2709 27007KT
BECMG 2718/2720 VRB03KT
No reported NOTAMs for that airfield.



MET'MAP, your aeronautical weather chart ! - Copyright ORBIFLY December 2007 - Disclaimer

ORBIFLY MET'MAP TEAM :

Programming & Development : Alexandra Zaïnal
Concept & Development : Baudouin d'Aumeries
Co-Development & Prog : Marc-Olivier Méhu
Technical & hardware support : Manuel Goepfert

Contact : metmap@orbifly.com




SOURCES & CREDITS :

   NOAA